Aviation Digital Data Service (ADDS)

Output produced by TAFs form (0438 UTC 28 July 2017)
found at http://www.aviationweather.gov/adds/tafs/
 
METAR text: RJCN 280419Z 06003KT 020V090 4500 -SHRA BR FEW003 SCT005 BKN012 17/17 Q1011 RMK 1ST003 3ST005 7ST012 A2986
Conditions at: RJCN (NAKASHIBETSU ARP, JP) observed 0419 UTC 28 July 2017
Temperature: 17.0°C (63°F)
Dewpoint: 17.0°C (63°F) [RH = 100%]
Pressure (altimeter): 29.85 inches Hg (1011.0 mb)
Winds: from the ENE (60 degrees) at 3 MPH (3 knots; 1.6 m/s)
Visibility: 2.80 miles (4.51 km)
Ceiling: 1200 feet AGL
Clouds: few clouds at 300 feet AGL
scattered clouds at 500 feet AGL
broken clouds at 1200 feet AGL
Weather: -SHRA BR  (light rain showers, mist)